TimeCST,TemperatureF,Dew PointF,Humidity,Sea Level PressureIn,VisibilityMPH,Wind Direction,Wind SpeedMPH,Gust SpeedMPH,PrecipitationIn,Events,Conditions,WindDirDegrees,DateUTC
12:53 AM,73.0,66.0,79,29.63,10.0,SSE,19.6,29.9,N/A,,Overcast,150,2013-02-21 06:53:00
1:53 AM,73.0,66.0,79,29.63,10.0,SSE,13.8,24.2,N/A,,Overcast,160,2013-02-21 07:53:00
2:53 AM,73.0,66.0,79,29.61,10.0,SSE,20.7,26.5,N/A,,Overcast,160,2013-02-21 08:53:00
3:53 AM,73.0,66.0,79,29.61,10.0,SSE,12.7,19.6,N/A,,Overcast,160,2013-02-21 09:53:00
4:53 AM,71.1,64.9,81,29.60,10.0,South,9.2,18.4,N/A,,Mostly Cloudy,170,2013-02-21 10:53:00
5:14 AM,71.6,64.4,78,29.61,10.0,South,8.1,-,N/A,,Scattered Clouds,170,2013-02-21 11:14:00
5:53 AM,71.1,64.9,81,29.62,10.0,Variable,5.8,-,N/A,,Clear,0,2013-02-21 11:53:00
6:53 AM,70.0,64.9,84,29.64,10.0,South,10.4,19.6,N/A,,Clear,170,2013-02-21 12:53:00
7:53 AM,69.8,66.2,88,29.66,8.0,SSE,12.7,-,N/A,,Clear,150,2013-02-21 13:53:00
8:53 AM,72.0,66.0,81,29.68,8.0,SSE,17.3,23.0,N/A,,Clear,150,2013-02-21 14:53:00
9:53 AM,75.0,64.9,71,29.67,9.0,SSE,15.0,-,N/A,,Clear,160,2013-02-21 15:53:00
10:53 AM,80.1,64.0,58,29.68,10.0,SSE,16.1,21.9,N/A,,Clear,160,2013-02-21 16:53:00
11:53 AM,84.9,63.0,48,29.67,10.0,SSE,12.7,23.0,N/A,,Clear,150,2013-02-21 17:53:00
12:53 PM,89.1,61.0,39,29.66,10.0,SSW,5.8,-,N/A,,Clear,200,2013-02-21 18:53:00
1:53 PM,90.0,61.0,38,29.64,10.0,NNW,12.7,-,N/A,,Clear,340,2013-02-21 19:53:00
2:53 PM,89.1,60.1,38,29.63,10.0,North,5.8,-,N/A,,Clear,350,2013-02-21 20:53:00
3:53 PM,91.9,60.1,34,29.63,10.0,NNE,5.8,19.6,N/A,,Clear,30,2013-02-21 21:53:00
4:53 PM,89.1,59.0,36,29.63,10.0,North,13.8,-,N/A,,Clear,360,2013-02-21 22:53:00
5:53 PM,84.0,57.9,41,29.65,10.0,North,18.4,24.2,N/A,,Clear,360,2013-02-21 23:53:00
6:53 PM,82.0,57.0,42,29.70,10.0,NNE,9.2,-,N/A,,Clear,20,2013-02-22 00:53:00
7:53 PM,80.1,59.0,48,29.73,10.0,NE,12.7,19.6,N/A,,Clear,40,2013-02-22 01:53:00
8:53 PM,77.0,55.0,47,29.77,10.0,NNE,16.1,25.3,N/A,,Overcast,30,2013-02-22 02:53:00
9:53 PM,75.0,53.1,46,29.78,10.0,North,16.1,-,N/A,,Clear,10,2013-02-22 03:53:00
10:53 PM,73.9,52.0,46,29.79,10.0,NNE,9.2,-,N/A,,Overcast,30,2013-02-22 04:53:00
11:53 PM,72.0,50.0,46,29.82,10.0,NE,8.1,-,N/A,,Overcast,40,2013-02-22 05:53:00